Time;durP1;ratioP1;P1;durP2;ratioP2;P2;SDS_P1;SDS_P2;PMS_P1;PMS_P2;Temp;Humidity;BMP_temperature;BMP_pressure;BME280_temperature;BME280_humidity;BME280_pressure;Samples;Min_cycle;Max_cycle;Signal;HPM_P1;HPM_P2
2024/02/10 00:01:07;;;;;;;19.30;17.13;;;9.80;99.90;;;;;;4994073;28;20226;-67
2024/02/10 00:03:36;;;;;;;22.27;19.93;;;9.80;99.90;;;;;;4994417;28;20214;-67
2024/02/10 00:06:02;;;;;;;18.63;16.63;;;9.80;99.90;;;;;;4997423;28;20521;-67
2024/02/10 00:08:28;;;;;;;18.70;16.70;;;9.70;99.90;;;;;;4994997;28;20420;-67
2024/02/10 00:10:56;;;;;;;17.10;14.70;;;9.80;99.90;;;;;;4992269;28;20863;-67
2024/02/10 00:13:22;;;;;;;17.13;15.13;;;9.80;99.90;;;;;;4982656;28;20211;-67
2024/02/10 00:15:49;;;;;;;15.53;12.87;;;9.80;99.90;;;;;;4995387;28;20965;-67
2024/02/10 00:18:22;;;;;;;15.57;13.17;;;9.80;99.90;;;;;;4994638;28;20481;-67
2024/02/10 00:20:50;;;;;;;20.53;15.73;;;9.80;99.90;;;;;;4999638;28;20472;-69
2024/02/10 00:23:15;;;;;;;15.00;13.50;;;9.80;99.90;;;;;;4993743;28;20856;-67
2024/02/10 00:25:41;;;;;;;15.30;13.53;;;9.80;99.90;;;;;;4989769;28;20582;-67
2024/02/10 00:28:10;;;;;;;17.17;14.17;;;9.80;99.90;;;;;;4984768;28;20217;-67
2024/02/10 00:30:37;;;;;;;14.90;13.40;;;9.80;99.90;;;;;;4994423;28;20431;-68
2024/02/10 00:33:04;;;;;;;16.00;12.80;;;9.80;99.90;;;;;;4993833;28;20434;-68
2024/02/10 00:35:29;;;;;;;16.00;12.90;;;9.70;99.90;;;;;;4986371;28;20839;-67
2024/02/10 00:37:57;;;;;;;14.87;12.83;;;9.80;99.90;;;;;;4990834;28;20447;-67
2024/02/10 00:40:23;;;;;;;14.77;13.20;;;9.80;99.90;;;;;;4993270;28;20219;-68
2024/02/10 00:42:53;;;;;;;14.70;13.27;;;9.80;99.90;;;;;;4989744;28;20432;-67
2024/02/10 00:45:19;;;;;;;15.40;12.70;;;9.90;99.90;;;;;;4990212;28;20222;-67
2024/02/10 00:47:45;;;;;;;14.03;12.20;;;9.90;99.90;;;;;;4993322;28;20442;-67
2024/02/10 00:50:11;;;;;;;12.07;10.90;;;9.90;99.90;;;;;;4994127;28;20453;-68
2024/02/10 00:52:37;;;;;;;11.47;10.37;;;9.80;99.90;;;;;;4973014;28;20180;-68
2024/02/10 00:55:03;;;;;;;9.30;8.40;;;9.90;99.90;;;;;;4987178;28;20474;-68
2024/02/10 00:57:28;;;;;;;11.23;8.60;;;9.80;99.90;;;;;;4993326;28;20704;-68
2024/02/10 00:59:56;;;;;;;9.87;8.60;;;9.90;99.90;;;;;;4994214;28;20199;-67
2024/02/10 01:02:22;;;;;;;10.30;8.80;;;9.90;99.90;;;;;;4991768;28;20238;-67
2024/02/10 01:04:48;;;;;;;11.40;10.30;;;10.00;99.90;;;;;;4994184;28;20849;-67
2024/02/10 01:07:15;;;;;;;12.67;11.37;;;9.90;99.90;;;;;;4992830;28;20805;-68
2024/02/10 01:09:47;;;;;;;10.17;9.10;;;9.90;99.90;;;;;;4994089;28;20948;-67
2024/02/10 01:12:14;;;;;;;10.70;8.97;;;9.90;99.90;;;;;;4993657;28;20446;-68
2024/02/10 01:14:40;;;;;;;14.40;9.13;;;9.90;99.90;;;;;;4990635;28;20486;-67
2024/02/10 01:17:13;;;;;;;10.47;9.47;;;9.90;99.90;;;;;;4977651;28;20438;-68
2024/02/10 01:19:49;;;;;;;10.13;9.13;;;9.90;99.90;;;;;;4993569;28;20911;-68
2024/02/10 01:22:26;;;;;;;10.73;9.60;;;9.90;99.90;;;;;;4991968;28;20564;-68
2024/02/10 01:24:54;;;;;;;13.20;10.47;;;9.90;99.90;;;;;;4992030;28;20823;-68
2024/02/10 01:27:20;;;;;;;11.20;9.63;;;9.90;99.90;;;;;;4991623;28;20488;-67
2024/02/10 01:29:47;;;;;;;13.93;9.33;;;9.90;99.90;;;;;;4994261;28;20434;-68
2024/02/10 01:32:15;;;;;;;11.13;9.40;;;10.00;99.90;;;;;;4992431;28;20434;-68
2024/02/10 01:34:41;;;;;;;13.53;9.83;;;10.00;99.90;;;;;;4993075;28;20486;-70
2024/02/10 01:37:07;;;;;;;10.03;9.03;;;10.00;99.90;;;;;;4991850;28;20457;-69
2024/02/10 01:39:33;;;;;;;11.00;9.17;;;10.10;99.90;;;;;;4993876;28;20501;-69
2024/02/10 01:41:59;;;;;;;10.03;9.00;;;10.10;99.90;;;;;;4992426;28;20825;-69
2024/02/10 01:44:25;;;;;;;10.77;9.33;;;10.00;99.90;;;;;;4987902;28;20290;-69
2024/02/10 01:46:50;;;;;;;10.63;9.60;;;9.90;99.90;;;;;;4991528;28;20175;-69
2024/02/10 01:49:17;;;;;;;10.80;9.10;;;9.90;99.90;;;;;;4987954;28;20434;-70
2024/02/10 01:51:43;;;;;;;14.07;9.20;;;9.90;99.90;;;;;;4988984;28;20262;-70
2024/02/10 01:54:09;;;;;;;10.33;9.33;;;9.90;99.90;;;;;;4988983;28;20491;-70
2024/02/10 01:56:38;;;;;;;10.90;9.27;;;9.90;99.90;;;;;;4993239;28;20430;-70
2024/02/10 01:59:07;;;;;;;10.50;9.23;;;9.90;99.90;;;;;;4992790;28;20438;-70
2024/02/10 02:01:36;;;;;;;12.40;11.10;;;9.90;99.90;;;;;;4993289;28;20462;-70
2024/02/10 02:04:04;;;;;;;10.43;8.67;;;9.90;99.90;;;;;;4988243;28;20517;-70
2024/02/10 02:06:31;;;;;;;10.57;9.50;;;9.80;99.90;;;;;;5001524;28;20510;-70
2024/02/10 02:09:00;;;;;;;11.33;10.23;;;9.80;99.90;;;;;;4991615;28;20529;-70
2024/02/10 02:11:28;;;;;;;10.83;9.73;;;9.80;99.90;;;;;;4979588;28;20446;-70
2024/02/10 02:13:58;;;;;;;10.03;9.20;;;9.80;99.90;;;;;;4977299;28;20456;-70
2024/02/10 02:16:25;;;;;;;9.97;9.00;;;9.80;99.90;;;;;;4991276;28;20797;-69
2024/02/10 02:18:51;;;;;;;10.00;9.10;;;9.80;99.90;;;;;;4992994;28;20422;-69
2024/02/10 02:21:17;;;;;;;12.60;11.03;;;9.70;99.90;;;;;;4987192;28;20478;-69
2024/02/10 02:23:43;;;;;;;9.60;8.70;;;9.70;99.90;;;;;;4989053;28;20195;-69
2024/02/10 02:26:09;;;;;;;10.10;9.03;;;9.70;99.90;;;;;;4988598;28;20211;-69
2024/02/10 02:28:34;;;;;;;11.23;10.13;;;9.70;99.90;;;;;;4992477;28;20955;-69
2024/02/10 02:31:03;;;;;;;10.07;9.07;;;9.70;99.90;;;;;;4992649;28;20658;-69
2024/02/10 02:33:31;;;;;;;10.93;9.80;;;9.70;99.90;;;;;;4990549;28;20184;-69
2024/02/10 02:35:57;;;;;;;10.23;9.23;;;9.70;99.90;;;;;;4991978;28;20883;-69
2024/02/10 02:38:23;;;;;;;11.03;9.93;;;9.70;99.90;;;;;;4986845;28;20525;-70
2024/02/10 02:40:49;;;;;;;10.63;9.47;;;9.70;99.90;;;;;;4990354;28;20244;-69
2024/02/10 02:43:15;;;;;;;10.37;9.30;;;9.70;99.90;;;;;;4987590;28;20534;-69
2024/02/10 02:45:43;;;;;;;12.70;10.47;;;9.70;99.90;;;;;;4992208;28;20199;-69
2024/02/10 02:48:10;;;;;;;14.23;12.73;;;9.70;99.90;;;;;;4991450;28;20171;-69
2024/02/10 02:50:37;;;;;;;11.60;9.70;;;9.70;99.90;;;;;;4992486;28;20486;-68
2024/02/10 02:53:03;;;;;;;10.60;9.70;;;9.70;99.90;;;;;;4990478;28;20445;-68
2024/02/10 02:55:29;;;;;;;11.30;10.17;;;9.60;99.90;;;;;;4990074;28;20458;-68
2024/02/10 02:57:58;;;;;;;11.20;10.17;;;9.70;99.90;;;;;;4986411;28;20820;-69
2024/02/10 03:00:23;;;;;;;12.97;10.47;;;9.60;99.90;;;;;;4991441;28;20471;-69
2024/02/10 03:02:51;;;;;;;11.27;10.03;;;9.60;99.90;;;;;;4991482;28;20434;-69
2024/02/10 03:05:17;;;;;;;10.37;9.27;;;9.50;99.90;;;;;;4992428;28;20221;-69
2024/02/10 03:07:44;;;;;;;12.83;11.47;;;9.40;99.90;;;;;;4989298;28;20434;-69
2024/02/10 03:10:10;;;;;;;12.67;11.37;;;9.50;99.90;;;;;;4992410;28;20932;-69
2024/02/10 03:12:35;;;;;;;11.77;10.67;;;9.40;99.90;;;;;;4988416;28;20825;-69
2024/02/10 03:15:02;;;;;;;12.13;10.90;;;9.40;99.90;;;;;;4988973;28;20450;-69
2024/02/10 03:17:30;;;;;;;12.33;11.13;;;9.40;99.90;;;;;;4991724;28;20172;-69
2024/02/10 03:20:05;;;;;;;12.43;11.23;;;9.40;99.90;;;;;;4992405;28;20537;-69
2024/02/10 03:22:32;;;;;;;15.07;13.40;;;9.40;99.90;;;;;;4990200;28;20430;-69
2024/02/10 03:24:57;;;;;;;13.13;11.70;;;9.40;99.90;;;;;;4985697;28;20454;-69
2024/02/10 03:27:23;;;;;;;13.43;12.13;;;9.40;99.90;;;;;;4991340;28;20431;-69
2024/02/10 03:29:50;;;;;;;15.37;13.73;;;9.50;99.90;;;;;;4985514;28;20296;-67
2024/02/10 03:32:16;;;;;;;14.20;11.67;;;9.50;99.90;;;;;;4988447;28;20192;-67
2024/02/10 03:34:42;;;;;;;12.43;11.17;;;9.40;99.90;;;;;;4991558;28;20466;-68
2024/02/10 03:37:09;;;;;;;13.17;11.77;;;9.30;99.90;;;;;;4985552;28;20580;-68
2024/02/10 03:39:35;;;;;;;14.63;13.13;;;9.20;99.90;;;;;;4973020;28;20462;-68
2024/02/10 03:42:00;;;;;;;17.37;15.03;;;9.10;99.90;;;;;;4992212;28;20422;-67
2024/02/10 03:44:26;;;;;;;15.37;13.90;;;9.10;99.90;;;;;;4991574;28;20886;-69
2024/02/10 03:46:55;;;;;;;19.33;15.60;;;9.00;99.90;;;;;;4988566;28;20680;-69
2024/02/10 03:49:21;;;;;;;29.40;17.60;;;9.00;99.90;;;;;;4973862;28;20175;-69
2024/02/10 03:51:46;;;;;;;82.80;20.70;;;8.90;99.90;;;;;;4990198;28;20453;-69
2024/02/10 03:54:12;;;;;;;50.17;20.67;;;8.80;99.90;;;;;;4986261;28;20270;-69
2024/02/10 03:56:42;;;;;;;70.47;20.17;;;8.80;99.90;;;;;;4980196;28;20183;-69
2024/02/10 03:59:08;;;;;;;62.93;19.30;;;8.90;99.90;;;;;;4991912;28;20821;-69
2024/02/10 04:01:34;;;;;;;115.03;22.70;;;8.80;99.90;;;;;;4990561;28;20609;-69
2024/02/10 04:04:02;;;;;;;55.97;22.30;;;8.80;99.90;;;;;;4990440;28;20219;-69
2024/02/10 04:06:28;;;;;;;85.23;22.10;;;8.70;99.90;;;;;;4990046;28;20446;-69
2024/02/10 04:08:54;;;;;;;85.60;22.70;;;8.80;99.90;;;;;;4993212;28;20900;-69
2024/02/10 04:11:20;;;;;;;55.07;20.00;;;8.70;99.90;;;;;;4993271;28;20250;-69
2024/02/10 04:13:47;;;;;;;105.83;21.83;;;8.70;99.90;;;;;;4990944;28;20947;-69
2024/02/10 04:16:13;;;;;;;116.57;22.60;;;8.80;99.90;;;;;;4993893;28;20485;-69
2024/02/10 04:18:39;;;;;;;83.23;23.03;;;8.80;99.90;;;;;;4994936;28;20525;-69
2024/02/10 04:21:06;;;;;;;103.00;23.47;;;8.70;99.90;;;;;;4992934;28;20458;-69
2024/02/10 04:23:37;;;;;;;118.23;22.57;;;8.70;99.90;;;;;;4994381;28;20494;-68
2024/02/10 04:26:05;;;;;;;185.90;25.90;;;8.70;99.90;;;;;;4991782;28;20426;-68
2024/02/10 04:28:30;;;;;;;162.93;22.93;;;8.70;99.90;;;;;;4991331;28;20458;-68
2024/02/10 04:30:56;;;;;;;35.87;19.73;;;8.70;99.90;;;;;;4986241;28;20476;-69
2024/02/10 04:33:22;;;;;;;50.10;19.93;;;8.80;99.90;;;;;;4994803;28;20175;-68
2024/02/10 04:35:48;;;;;;;44.70;20.70;;;8.90;99.90;;;;;;4988651;28;20242;-69
2024/02/10 04:38:14;;;;;;;45.03;17.20;;;8.80;99.90;;;;;;4993500;28;20442;-69
2024/02/10 04:40:40;;;;;;;36.93;17.60;;;8.80;99.90;;;;;;4994241;28;20454;-69
2024/02/10 04:43:06;;;;;;;44.20;20.30;;;8.80;99.90;;;;;;4977712;28;20176;-69
2024/02/10 04:45:35;;;;;;;44.50;20.10;;;8.80;99.90;;;;;;4988536;28;20491;-69
2024/02/10 04:48:03;;;;;;;32.67;19.33;;;8.80;99.90;;;;;;4992743;28;20434;-67
2024/02/10 04:50:29;;;;;;;27.03;17.50;;;8.90;99.90;;;;;;4989929;28;20435;-68
2024/02/10 04:52:56;;;;;;;23.13;16.90;;;8.90;99.90;;;;;;4989992;28;20565;-68
2024/02/10 04:55:23;;;;;;;21.40;17.40;;;9.00;99.90;;;;;;4993213;28;20469;-69
2024/02/10 04:57:49;;;;;;;29.07;18.27;;;9.00;99.90;;;;;;4989641;28;20457;-69
2024/02/10 05:00:16;;;;;;;25.90;18.10;;;9.10;99.90;;;;;;4992109;28;20872;-67
2024/02/10 05:02:45;;;;;;;22.53;16.33;;;9.00;99.90;;;;;;4987884;28;20505;-69
2024/02/10 05:05:12;;;;;;;21.70;17.23;;;8.90;99.90;;;;;;4986297;28;20486;-67
2024/02/10 05:07:42;;;;;;;24.40;18.50;;;8.90;99.90;;;;;;4989750;28;20438;-69
2024/02/10 05:10:10;;;;;;;29.33;20.93;;;8.80;99.90;;;;;;4989825;28;20469;-65
2024/02/10 05:12:36;;;;;;;27.33;18.60;;;8.80;99.90;;;;;;4990449;28;20438;-69
2024/02/10 05:15:02;;;;;;;30.23;18.67;;;8.80;99.90;;;;;;4985960;28;20485;-69
2024/02/10 05:17:28;;;;;;;37.90;19.60;;;8.80;99.90;;;;;;4994106;28;20426;-69
2024/02/10 05:19:53;;;;;;;37.10;20.27;;;8.70;99.90;;;;;;4992545;28;20208;-69
2024/02/10 05:22:19;;;;;;;32.50;21.30;;;8.60;99.90;;;;;;4994261;28;20210;-68
2024/02/10 05:24:48;;;;;;;37.70;20.20;;;8.60;99.90;;;;;;4992571;28;20193;-68
2024/02/10 05:27:14;;;;;;;26.40;20.00;;;8.60;99.90;;;;;;4993025;28;20188;-69
2024/02/10 05:29:41;;;;;;;43.00;20.43;;;8.60;99.90;;;;;;4994302;28;20588;-68
2024/02/10 05:32:06;;;;;;;45.83;24.17;;;8.70;99.90;;;;;;4992843;28;20190;-69
2024/02/10 05:34:32;;;;;;;27.43;20.87;;;8.60;99.90;;;;;;4993299;28;20561;-68
2024/02/10 05:37:00;;;;;;;34.30;21.60;;;8.70;99.90;;;;;;4993043;28;20180;-68
2024/02/10 05:39:26;;;;;;;42.53;22.43;;;8.70;99.90;;;;;;4993054;28;20175;-69
2024/02/10 05:41:57;;;;;;;26.20;19.10;;;8.80;99.90;;;;;;4981260;28;20446;-69
2024/02/10 05:44:23;;;;;;;35.23;20.77;;;8.80;99.90;;;;;;4988295;28;20470;-69
2024/02/10 05:46:49;;;;;;;29.47;19.37;;;8.70;99.90;;;;;;4987711;28;20533;-69
2024/02/10 05:49:18;;;;;;;42.70;21.80;;;8.70;99.90;;;;;;4993385;28;20545;-71
2024/02/10 05:51:44;;;;;;;30.80;21.90;;;8.70;99.90;;;;;;4993742;28;20434;-72
2024/02/10 05:54:09;;;;;;;27.90;20.60;;;8.70;99.90;;;;;;4993225;28;20824;-68
2024/02/10 05:56:35;;;;;;;29.87;19.53;;;8.80;99.90;;;;;;4992788;28;20183;-68
2024/02/10 05:59:03;;;;;;;25.60;20.23;;;8.80;99.90;;;;;;4992804;28;20613;-68
2024/02/10 06:01:29;;;;;;;22.90;18.10;;;8.80;99.90;;;;;;4992903;28;20275;-69
2024/02/10 06:03:55;;;;;;;25.97;20.20;;;8.90;99.90;;;;;;4994302;28;21055;-68
2024/02/10 06:06:21;;;;;;;24.00;18.07;;;8.80;99.90;;;;;;4992261;28;20187;-68
2024/02/10 06:08:47;;;;;;;23.63;17.23;;;8.90;99.90;;;;;;4992874;28;21230;-68
2024/02/10 06:11:18;;;;;;;21.00;17.10;;;8.80;99.90;;;;;;4992663;28;20187;-68
2024/02/10 06:13:46;;;;;;;25.87;18.87;;;8.90;99.90;;;;;;4992940;28;20948;-68
2024/02/10 06:16:11;;;;;;;21.23;17.00;;;8.90;99.90;;;;;;4991085;28;20466;-68
2024/02/10 06:18:37;;;;;;;22.70;19.60;;;8.90;99.90;;;;;;4992648;28;20470;-68
2024/02/10 06:21:02;;;;;;;22.93;18.43;;;9.00;99.90;;;;;;4993250;28;20212;-69
2024/02/10 06:23:30;;;;;;;21.90;17.80;;;9.00;99.90;;;;;;4992881;28;20172;-68
2024/02/10 06:25:56;;;;;;;23.50;17.27;;;9.00;99.90;;;;;;4981398;28;20185;-69
2024/02/10 06:28:22;;;;;;;22.50;18.13;;;9.00;99.90;;;;;;4992272;28;20535;-69
2024/02/10 06:30:49;;;;;;;22.07;17.90;;;9.10;99.90;;;;;;4991266;28;20470;-69
2024/02/10 06:33:28;;;;;;;22.77;18.97;;;9.10;99.90;;;;;;4990436;28;20550;-69
2024/02/10 06:35:57;;;;;;;25.03;19.37;;;9.10;99.90;;;;;;4992490;28;20802;-68
2024/02/10 06:38:23;;;;;;;30.43;18.70;;;9.10;99.90;;;;;;4985248;28;21007;-68
2024/02/10 06:40:48;;;;;;;25.93;19.07;;;9.00;99.90;;;;;;4992803;28;20549;-68
2024/02/10 06:43:14;;;;;;;23.70;17.50;;;9.00;99.90;;;;;;4975501;28;20269;-68
2024/02/10 06:45:41;;;;;;;23.33;18.00;;;8.90;99.90;;;;;;4990697;28;20341;-68
2024/02/10 06:48:09;;;;;;;25.50;18.57;;;9.00;99.90;;;;;;4991832;28;20171;-68
2024/02/10 06:50:36;;;;;;;23.67;18.60;;;9.00;99.90;;;;;;4993012;28;20434;-68
2024/02/10 06:53:01;;;;;;;22.80;17.40;;;9.00;99.90;;;;;;4991754;28;20442;-67
2024/02/10 06:55:27;;;;;;;25.87;20.17;;;8.90;99.90;;;;;;4990779;28;20458;-67
2024/02/10 06:57:55;;;;;;;26.27;19.53;;;8.90;99.90;;;;;;4985509;28;20697;-67
2024/02/10 07:00:22;;;;;;;24.10;18.90;;;8.90;99.90;;;;;;4973511;28;20606;-68
2024/02/10 07:02:48;;;;;;;25.97;20.17;;;9.00;99.90;;;;;;4988049;28;20434;-68
2024/02/10 07:05:18;;;;;;;31.47;20.63;;;9.00;99.90;;;;;;4991676;28;20457;-68
2024/02/10 07:07:48;;;;;;;25.07;20.30;;;9.00;99.90;;;;;;4992342;28;20789;-69
2024/02/10 07:10:18;;;;;;;27.37;19.30;;;9.00;99.90;;;;;;4992112;28;20423;-67
2024/02/10 07:12:48;;;;;;;24.90;18.17;;;9.00;99.90;;;;;;4988352;28;20439;-67
2024/02/10 07:15:18;;;;;;;33.17;19.60;;;9.10;99.90;;;;;;4984378;28;20590;-66
2024/02/10 07:17:49;;;;;;;25.40;20.00;;;9.20;99.90;;;;;;4991262;28;20960;-66
2024/02/10 07:20:20;;;;;;;25.33;19.47;;;9.20;99.90;;;;;;4991110;28;20485;-66
2024/02/10 07:22:49;;;;;;;26.90;18.73;;;9.20;99.90;;;;;;4992480;28;20423;-66
2024/02/10 07:25:19;;;;;;;36.20;22.93;;;9.30;99.90;;;;;;4992926;28;20450;-66
2024/02/10 07:27:50;;;;;;;69.73;25.57;;;9.30;99.90;;;;;;4992208;28;20514;-67
2024/02/10 07:30:17;;;;;;;54.53;23.13;;;9.30;99.90;;;;;;4990872;28;20445;-68
2024/02/10 07:32:44;;;;;;;37.03;22.60;;;9.20;99.90;;;;;;4987392;28;20953;-68
2024/02/10 07:35:10;;;;;;;47.83;22.90;;;9.20;99.90;;;;;;4999899;23;20522;-69
2024/02/10 07:37:36;;;;;;;49.83;25.07;;;9.30;99.90;;;;;;4971962;28;20853;-68
2024/02/10 07:40:03;;;;;;;33.00;21.90;;;9.30;99.90;;;;;;4972168;28;20470;-69
2024/02/10 07:42:29;;;;;;;63.43;23.00;;;9.40;99.90;;;;;;4973037;28;20439;-68
2024/02/10 07:44:55;;;;;;;70.40;22.77;;;9.50;99.90;;;;;;4978029;28;20452;-72
2024/02/10 07:47:24;;;;;;;88.13;26.20;;;9.50;99.90;;;;;;4993933;28;20176;-71
2024/02/10 07:49:54;;;;;;;49.80;22.40;;;9.40;99.90;;;;;;4981286;28;20238;-70
2024/02/10 07:52:20;;;;;;;131.87;26.23;;;9.40;99.90;;;;;;4976830;28;20415;-70
2024/02/10 07:54:47;;;;;;;196.70;30.37;;;9.30;99.90;;;;;;4989329;28;20445;-70
2024/02/10 07:57:21;;;;;;;172.30;30.40;;;9.40;99.90;;;;;;4995298;28;20442;-70
2024/02/10 07:59:54;;;;;;;87.13;24.57;;;9.50;99.90;;;;;;4990613;28;20524;-71
2024/02/10 08:02:23;;;;;;;86.43;23.90;;;9.60;99.90;;;;;;4995136;28;20449;-70
2024/02/10 08:04:58;;;;;;;119.00;25.30;;;9.70;99.90;;;;;;4995745;28;20442;-70
2024/02/10 08:07:29;;;;;;;185.57;30.70;;;9.70;99.90;;;;;;4995039;28;20453;-70
2024/02/10 08:09:59;;;;;;;86.13;26.40;;;9.70;99.90;;;;;;4995279;28;20474;-71
2024/02/10 08:12:25;;;;;;;67.87;26.57;;;9.70;99.90;;;;;;4995727;28;20419;-70
2024/02/10 08:14:53;;;;;;;43.47;21.93;;;9.80;99.90;;;;;;4993444;28;20860;-70
2024/02/10 08:17:24;;;;;;;43.87;23.57;;;9.90;99.90;;;;;;4992727;28;20470;-71
2024/02/10 08:19:59;;;;;;;33.83;24.57;;;9.90;99.90;;;;;;4993923;28;20468;-70
2024/02/10 08:22:25;;;;;;;27.00;24.10;;;9.90;99.90;;;;;;4976216;28;20431;-71
2024/02/10 08:24:55;;;;;;;29.37;22.23;;;10.00;99.90;;;;;;4994831;28;20458;-70
2024/02/10 08:27:25;;;;;;;32.63;24.20;;;10.10;99.90;;;;;;4993369;28;20481;-70
2024/02/10 08:29:51;;;;;;;34.10;24.97;;;10.10;99.90;;;;;;4995335;28;20501;-70
2024/02/10 08:32:17;;;;;;;32.40;23.07;;;10.00;99.90;;;;;;4995062;28;20476;-70
2024/02/10 08:34:42;;;;;;;31.17;24.20;;;9.90;99.90;;;;;;4994542;28;20828;-70
2024/02/10 08:37:12;;;;;;;27.93;23.40;;;9.90;99.90;;;;;;4995024;28;20179;-70
2024/02/10 08:39:38;;;;;;;29.30;23.30;;;10.00;99.90;;;;;;4994920;28;20657;-70
2024/02/10 08:42:05;;;;;;;27.70;22.17;;;10.00;99.90;;;;;;4990826;28;21030;-70
2024/02/10 08:44:32;;;;;;;32.00;23.20;;;9.90;99.90;;;;;;4996594;28;20458;-70
2024/02/10 08:47:03;;;;;;;32.63;23.90;;;9.80;99.90;;;;;;4996634;28;20446;-70
2024/02/10 08:49:36;;;;;;;30.10;22.87;;;9.80;99.90;;;;;;4995141;28;20422;-70
2024/02/10 08:52:03;;;;;;;33.97;24.67;;;9.80;99.90;;;;;;4994551;28;20445;-70
2024/02/10 08:54:30;;;;;;;29.40;24.63;;;9.80;99.90;;;;;;4992272;28;20463;-71
2024/02/10 08:57:00;;;;;;;29.90;23.53;;;9.80;99.90;;;;;;4993698;28;20793;-71
2024/02/10 08:59:32;;;;;;;27.73;23.17;;;10.00;99.90;;;;;;4992832;28;20438;-70
2024/02/10 09:02:02;;;;;;;32.30;24.07;;;10.00;99.90;;;;;;4994227;28;20951;-70
2024/02/10 09:04:31;;;;;;;31.47;24.70;;;9.90;99.90;;;;;;4993951;28;20446;-70
2024/02/10 09:06:58;;;;;;;29.97;24.50;;;9.90;99.90;;;;;;4993812;28;20434;-69
2024/02/10 09:09:25;;;;;;;26.03;22.47;;;9.90;99.90;;;;;;4994236;28;20447;-70
2024/02/10 09:11:50;;;;;;;27.60;22.97;;;9.80;99.90;;;;;;4994035;28;20431;-70
2024/02/10 09:14:16;;;;;;;31.37;24.47;;;9.80;99.90;;;;;;4993593;28;20447;-69
2024/02/10 09:16:45;;;;;;;28.30;23.50;;;9.70;99.90;;;;;;4993803;28;20194;-69
2024/02/10 09:19:12;;;;;;;24.30;20.43;;;9.70;99.90;;;;;;4986606;28;20181;-69
2024/02/10 09:21:39;;;;;;;27.47;21.40;;;9.70;99.90;;;;;;4976510;28;21062;-70
2024/02/10 09:24:04;;;;;;;27.43;21.43;;;9.50;99.90;;;;;;4993350;28;20470;-70
2024/02/10 09:26:30;;;;;;;26.53;21.43;;;9.40;99.90;;;;;;4992719;28;20461;-69
2024/02/10 09:28:55;;;;;;;30.90;23.73;;;9.50;99.90;;;;;;4992169;28;20419;-70
2024/02/10 09:31:24;;;;;;;23.80;20.20;;;9.60;99.90;;;;;;4993745;28;20183;-69
2024/02/10 09:33:50;;;;;;;27.93;21.10;;;9.60;99.90;;;;;;4993074;28;20167;-70
2024/02/10 09:36:16;;;;;;;26.67;22.20;;;9.60;99.90;;;;;;4979827;28;20568;-71
2024/02/10 09:38:42;;;;;;;29.63;22.60;;;9.70;99.90;;;;;;5003125;28;20198;-69
2024/02/10 09:41:08;;;;;;;28.23;23.53;;;9.60;99.90;;;;;;4990031;28;20462;-70
2024/02/10 09:43:38;;;;;;;28.60;21.60;;;9.70;99.90;;;;;;4992932;28;20447;-70
2024/02/10 09:46:10;;;;;;;32.47;23.40;;;9.70;99.90;;;;;;4991172;28;21250;-70
2024/02/10 09:48:41;;;;;;;27.23;21.77;;;9.80;99.90;;;;;;4993587;28;20419;-69
2024/02/10 09:51:07;;;;;;;29.67;23.70;;;9.80;99.90;;;;;;4993320;28;20524;-70
2024/02/10 09:53:34;;;;;;;27.53;21.63;;;9.90;99.90;;;;;;4987773;28;20435;-70
2024/02/10 09:55:59;;;;;;;32.30;22.50;;;9.90;99.90;;;;;;4990898;28;20466;-69
2024/02/10 09:58:26;;;;;;;31.33;23.33;;;10.00;99.90;;;;;;4992522;28;20956;-68
2024/02/10 10:00:52;;;;;;;26.87;21.10;;;10.00;99.90;;;;;;4972477;28;20285;-69
2024/02/10 10:03:18;;;;;;;30.83;24.10;;;10.00;99.90;;;;;;4990589;28;20497;-69
2024/02/10 10:05:45;;;;;;;29.47;20.80;;;10.00;99.90;;;;;;4993113;28;20454;-70
2024/02/10 10:08:12;;;;;;;27.70;21.33;;;10.00;99.90;;;;;;4984707;28;20183;-70
2024/02/10 10:10:38;;;;;;;27.50;22.00;;;10.00;99.90;;;;;;4993595;28;20427;-70
2024/02/10 10:13:07;;;;;;;29.03;22.07;;;10.10;99.90;;;;;;4992380;28;20447;-70
2024/02/10 10:15:34;;;;;;;23.93;20.43;;;10.20;99.90;;;;;;4991304;28;20497;-70
2024/02/10 10:18:00;;;;;;;29.00;22.13;;;10.30;99.90;;;;;;4992852;28;20429;-70
2024/02/10 10:20:25;;;;;;;24.00;20.33;;;10.40;99.90;;;;;;4992738;28;20467;-70
2024/02/10 10:22:51;;;;;;;22.63;19.20;;;10.40;99.90;;;;;;4992587;28;20183;-70
2024/02/10 10:25:17;;;;;;;22.00;19.60;;;10.40;99.90;;;;;;4993002;28;20677;-69
2024/02/10 10:27:47;;;;;;;22.10;19.47;;;10.40;99.90;;;;;;4990300;28;20182;-70
2024/02/10 10:30:15;;;;;;;24.30;19.60;;;10.50;99.90;;;;;;4991934;28;20206;-69
2024/02/10 10:32:50;;;;;;;25.10;20.20;;;10.50;99.90;;;;;;4991492;28;20461;-69
2024/02/10 10:35:19;;;;;;;31.77;26.30;;;10.50;99.90;;;;;;4992868;28;20466;-67
2024/02/10 10:37:47;;;;;;;33.57;25.93;;;10.60;99.90;;;;;;4992807;28;20426;-70
2024/02/10 10:40:13;;;;;;;26.43;19.63;;;10.70;99.90;;;;;;4975396;28;20458;-69
2024/02/10 10:42:41;;;;;;;19.50;17.40;;;10.70;99.90;;;;;;4980833;28;20802;-70
2024/02/10 10:45:08;;;;;;;23.40;19.93;;;10.80;99.90;;;;;;4981901;28;20676;-70
2024/02/10 10:47:41;;;;;;;19.80;17.70;;;10.80;99.90;;;;;;5006140;28;20424;-70
2024/02/10 10:50:09;;;;;;;20.00;17.87;;;10.80;99.90;;;;;;5005109;28;20458;-70
2024/02/10 10:52:39;;;;;;;21.70;19.20;;;10.90;99.90;;;;;;4991971;28;20435;-70
2024/02/10 10:55:09;;;;;;;19.87;17.80;;;11.00;99.90;;;;;;4992845;28;20832;-70
2024/02/10 10:57:36;;;;;;;27.13;22.10;;;11.10;99.90;;;;;;4982835;28;20439;-70
2024/02/10 11:00:15;;;;;;;25.70;21.67;;;11.20;99.90;;;;;;4982887;28;20467;-70
2024/02/10 11:02:42;;;;;;;22.40;20.00;;;11.20;99.90;;;;;;4986217;28;20956;-70
2024/02/10 11:05:16;;;;;;;27.23;20.00;;;11.30;99.90;;;;;;4992332;28;20630;-70
2024/02/10 11:07:48;;;;;;;20.60;18.23;;;11.30;99.90;;;;;;4991242;28;20434;-69
2024/02/10 11:10:33;;;;;;;22.10;19.77;;;11.40;99.90;;;;;;4992311;28;20458;-70
2024/02/10 11:13:00;;;;;;;28.57;21.40;;;11.40;99.90;;;;;;4992628;28;20427;-69
2024/02/10 11:15:26;;;;;;;21.63;18.70;;;11.40;99.90;;;;;;4992111;28;20458;-70
2024/02/10 11:18:01;;;;;;;26.50;20.33;;;11.30;99.90;;;;;;4992195;28;20430;-69
2024/02/10 11:20:39;;;;;;;23.67;19.70;;;11.30;99.90;;;;;;4993605;28;21052;-70
2024/02/10 11:23:20;;;;;;;21.53;19.23;;;11.20;99.90;;;;;;4992026;28;20431;-68
2024/02/10 11:25:46;;;;;;;23.63;20.60;;;11.20;99.90;;;;;;4992448;28;20438;-69
2024/02/10 11:28:20;;;;;;;26.00;20.50;;;11.10;99.90;;;;;;4992468;28;20426;-69
2024/02/10 11:30:47;;;;;;;26.30;19.80;;;11.00;99.90;;;;;;4992203;28;20939;-69
2024/02/10 11:33:17;;;;;;;27.20;22.60;;;11.10;99.90;;;;;;4990885;28;20967;-69
2024/02/10 11:35:46;;;;;;;23.60;20.20;;;11.20;99.90;;;;;;4991911;28;20549;-69
2024/02/10 11:38:13;;;;;;;34.80;25.53;;;11.30;99.90;;;;;;4991889;28;21178;-69
2024/02/10 11:40:40;;;;;;;30.60;24.77;;;11.30;99.90;;;;;;4992018;28;20898;-70
2024/02/10 11:43:10;;;;;;;28.63;23.00;;;11.30;99.90;;;;;;4991990;28;20419;-69
2024/02/10 11:45:37;;;;;;;26.40;22.50;;;11.30;99.90;;;;;;4991310;28;20454;-69
2024/02/10 11:48:03;;;;;;;28.97;22.67;;;11.40;99.90;;;;;;4991946;28;20947;-69
2024/02/10 11:50:29;;;;;;;28.27;23.93;;;11.40;99.90;;;;;;4992084;28;20430;-69
2024/02/10 11:52:59;;;;;;;26.60;23.70;;;11.40;99.90;;;;;;4992247;28;20436;-68
2024/02/10 11:55:25;;;;;;;30.70;23.63;;;11.60;99.90;;;;;;4991526;28;20195;-68
2024/02/10 11:57:51;;;;;;;31.00;23.97;;;11.50;99.90;;;;;;4991803;28;20457;-68
2024/02/10 12:00:18;;;;;;;28.87;23.30;;;11.60;99.90;;;;;;4991724;28;20458;-69
2024/02/10 12:02:47;;;;;;;26.87;23.97;;;11.70;99.90;;;;;;4990403;28;20435;-68
2024/02/10 12:05:13;;;;;;;28.40;22.60;;;11.70;99.90;;;;;;4988877;28;20454;-69
2024/02/10 12:07:39;;;;;;;28.30;23.20;;;11.70;99.90;;;;;;4991127;28;20978;-68
2024/02/10 12:10:05;;;;;;;28.37;23.60;;;11.70;99.90;;;;;;4990227;28;20434;-68
2024/02/10 12:12:32;;;;;;;26.17;23.27;;;11.80;99.90;;;;;;4987927;28;20180;-69
2024/02/10 12:14:59;;;;;;;27.80;24.07;;;11.90;99.90;;;;;;4991923;28;20473;-69
2024/02/10 12:17:29;;;;;;;26.00;23.20;;;11.80;99.90;;;;;;4991725;28;20562;-68
2024/02/10 12:19:55;;;;;;;28.10;25.20;;;11.70;99.90;;;;;;4992305;28;20454;-69
2024/02/10 12:22:22;;;;;;;27.17;23.37;;;11.70;99.90;;;;;;4991445;28;20790;-68
2024/02/10 12:24:48;;;;;;;28.70;24.97;;;11.70;99.90;;;;;;4991697;28;20447;-69
2024/02/10 12:27:13;;;;;;;27.77;23.60;;;11.70;99.90;;;;;;4991900;28;20425;-69
2024/02/10 12:29:39;;;;;;;28.57;25.30;;;11.70;99.90;;;;;;4993867;28;20254;-69
2024/02/10 12:32:05;;;;;;;27.57;24.10;;;11.70;99.90;;;;;;4994570;28;20184;-70
2024/02/10 12:34:31;;;;;;;25.80;23.00;;;11.90;99.90;;;;;;4995097;28;20654;-70
2024/02/10 12:36:57;;;;;;;29.63;26.17;;;12.00;99.90;;;;;;4994903;28;20458;-69